Terminal Aerodrome Forecast
Issued by NWS Grand Forks, ND

Home | Current Version | Previous Version | Text Only | Print | Product List | Glossary Off
Versions: 1 2 3 4 5 6 7 8 9 10 11 12 13 14 15 16 17 18 19 20 21 22 23 24

161
FTUS43 KFGF 210848 AAA
TAFGFK
TAF AMD
KGFK 210848Z 2109/2206 21006KT P6SM BKN100
      TEMPO 2109/2113 3SM BR
     FM211400 19009KT P6SM BKN090
     FM211600 19010KT P6SM SCT035=

USA.gov is the U.S. government's official web portal to all federal, state and local government web resources and services.